createdAt,value
2022-08-14T00:02:02.381Z,21.12
2022-08-14T00:04:34.161Z,21.10
2022-08-14T00:07:07.877Z,21.14
2022-08-14T00:09:56.373Z,21.07
2022-08-14T00:12:33.817Z,21.13
2022-08-14T00:15:15.014Z,21.11
2022-08-14T00:17:47.511Z,21.05
2022-08-14T00:20:23.501Z,20.88
2022-08-14T00:22:56.999Z,20.85
2022-08-14T00:25:41.632Z,20.82
2022-08-14T00:28:15.391Z,20.75
2022-08-14T00:30:46.812Z,20.76
2022-08-14T00:33:16.347Z,20.63
2022-08-14T00:36:35.325Z,20.70
2022-08-14T00:38:34.783Z,20.73
2022-08-14T00:41:07.054Z,20.83
2022-08-14T00:43:43.262Z,20.78
2022-08-14T00:46:32.884Z,20.91
2022-08-14T00:49:02.342Z,20.87
2022-08-14T00:51:37.614Z,20.86
2022-08-14T00:54:17.011Z,20.70
2022-08-14T00:56:55.162Z,20.67
2022-08-14T00:59:25.264Z,20.54
2022-08-14T01:01:57.523Z,20.46
2022-08-14T01:04:38.137Z,20.46
2022-08-14T01:07:21.346Z,20.25
2022-08-14T01:09:51.644Z,20.32
2022-08-14T01:12:27.348Z,20.33
2022-08-14T01:14:59.218Z,20.48
2022-08-14T01:17:52.010Z,20.49
2022-08-14T01:20:40.972Z,20.51
2022-08-14T01:23:16.058Z,20.45
2022-08-14T01:25:51.508Z,20.37
2022-08-14T01:28:47.268Z,20.20
2022-08-14T01:31:14.424Z,20.13
2022-08-14T01:34:07.429Z,20.18
2022-08-14T01:36:39.316Z,20.13
2022-08-14T01:39:12.929Z,20.16
2022-08-14T01:41:44.174Z,20.17
2022-08-14T01:44:33.079Z,20.16
2022-08-14T01:47:11.735Z,20.24
2022-08-14T01:49:58.928Z,20.10
2022-08-14T01:52:34.216Z,19.98
2022-08-14T01:55:22.094Z,19.94
2022-08-14T01:58:02.211Z,20.01
2022-08-14T02:00:39.600Z,19.98
2022-08-14T02:03:08.467Z,20.05
2022-08-14T02:05:39.021Z,20.08
2022-08-14T02:08:09.562Z,19.97
2022-08-14T02:10:46.936Z,19.94
2022-08-14T02:13:19.637Z,19.90
2022-08-14T02:15:50.175Z,19.87
2022-08-14T02:18:19.025Z,19.84
2022-08-14T02:20:48.886Z,19.78
2022-08-14T02:23:29.006Z,19.72
2022-08-14T02:26:24.479Z,19.60
2022-08-14T02:28:58.180Z,19.63
2022-08-14T02:31:42.008Z,19.65
2022-08-14T02:34:20.134Z,19.70
2022-08-14T02:37:04.285Z,19.65
2022-08-14T02:39:37.289Z,19.59
2022-08-14T02:42:13.338Z,19.59
2022-08-14T02:44:49.334Z,19.57
2022-08-14T02:47:20.781Z,19.63
2022-08-14T02:49:54.799Z,19.55
2022-08-14T02:52:55.877Z,19.61
2022-08-14T02:55:19.663Z,19.72
2022-08-14T02:58:03.343Z,19.60
2022-08-14T03:00:39.936Z,19.55
2022-08-14T03:03:09.012Z,19.47
2022-08-14T03:05:41.330Z,19.30
2022-08-14T03:08:15.956Z,19.48
2022-08-14T03:10:49.303Z,19.48
2022-08-14T03:13:21.920Z,19.45
2022-08-14T03:15:55.572Z,19.46
2022-08-14T03:18:31.423Z,19.45
2022-08-14T03:21:05.669Z,19.46
2022-08-14T03:23:36.475Z,19.46
2022-08-14T03:26:13.114Z,19.40
2022-08-14T03:28:50.291Z,19.47
2022-08-14T03:31:26.165Z,19.41
2022-08-14T03:34:00.271Z,19.42
2022-08-14T03:37:37.850Z,19.47
2022-08-14T03:39:24.010Z,19.26
2022-08-14T03:41:54.369Z,19.26
2022-08-14T03:45:18.800Z,19.18
2022-08-14T03:47:15.313Z,19.21
2022-08-14T03:49:46.121Z,19.19
2022-08-14T03:52:38.251Z,19.06
2022-08-14T03:55:09.387Z,19.13
2022-08-14T03:57:38.278Z,19.10
2022-08-14T04:00:40.552Z,19.09
2022-08-14T04:03:02.578Z,19.09
2022-08-14T04:05:42.521Z,19.19
2022-08-14T04:08:29.409Z,19.20
2022-08-14T04:11:01.100Z,19.15
2022-08-14T04:13:31.973Z,19.17
2022-08-14T04:16:10.172Z,19.13
2022-08-14T04:18:43.002Z,19.21
2022-08-14T04:21:13.143Z,19.04
2022-08-14T04:23:44.097Z,19.10
2022-08-14T04:26:14.546Z,19.13
2022-08-14T04:29:07.497Z,19.16
2022-08-14T04:31:34.691Z,19.23
2022-08-14T04:34:27.154Z,19.32
2022-08-14T04:37:13.500Z,19.25
2022-08-14T04:40:08.820Z,19.20
2022-08-14T04:42:54.399Z,19.21
2022-08-14T04:45:24.579Z,19.25
2022-08-14T04:48:12.629Z,19.16
2022-08-14T04:50:44.861Z,19.15
2022-08-14T04:53:15.289Z,19.15
2022-08-14T04:55:51.415Z,19.16
2022-08-14T04:58:32.884Z,19.21
2022-08-14T05:01:12.976Z,19.17
2022-08-14T05:03:50.574Z,19.22
2022-08-14T05:06:37.963Z,19.20
2022-08-14T05:09:13.911Z,19.28
2022-08-14T05:11:44.248Z,19.31
2022-08-14T05:14:16.691Z,19.33
2022-08-14T05:17:02.070Z,19.47
2022-08-14T05:19:31.929Z,19.45
2022-08-14T05:22:15.881Z,19.51
2022-08-14T05:24:48.440Z,19.51
2022-08-14T05:27:22.942Z,19.52
2022-08-14T05:29:55.222Z,19.64
2022-08-14T05:32:27.212Z,19.53
2022-08-14T05:34:59.417Z,19.65
2022-08-14T05:37:29.617Z,19.59
2022-08-14T05:39:59.570Z,19.56
2022-08-14T05:42:34.291Z,19.70
2022-08-14T05:45:04.790Z,19.62
2022-08-14T05:47:39.449Z,19.80
2022-08-14T05:50:18.369Z,19.83
2022-08-14T05:52:47.590Z,19.78
2022-08-14T05:55:16.829Z,19.90
2022-08-14T05:57:52.141Z,19.93
2022-08-14T06:00:29.300Z,19.97
2022-08-14T06:03:06.762Z,19.98
2022-08-14T06:05:38.417Z,20.08
2022-08-14T06:08:08.644Z,20.16
2022-08-14T06:10:51.303Z,20.25
2022-08-14T06:13:20.685Z,20.35
2022-08-14T06:15:50.741Z,20.41
2022-08-14T06:18:21.721Z,20.50
2022-08-14T06:20:57.273Z,20.51
2022-08-14T06:23:25.724Z,20.54
2022-08-14T06:25:55.759Z,20.69
2022-08-14T06:28:28.508Z,20.75
2022-08-14T06:30:57.230Z,20.84
2022-08-14T06:33:30.036Z,20.90
2022-08-14T06:36:19.399Z,20.95
2022-08-14T06:38:50.306Z,21.10
2022-08-14T06:41:20.828Z,21.12
2022-08-14T06:44:04.780Z,21.13
2022-08-14T06:46:36.951Z,21.34
2022-08-14T06:49:05.638Z,21.36
2022-08-14T06:51:38.647Z,21.52
2022-08-14T06:54:13.135Z,21.62
2022-08-14T06:56:44.337Z,21.69
2022-08-14T06:59:19.709Z,21.74
2022-08-14T07:02:05.740Z,21.75
2022-08-14T07:04:59.117Z,21.88
2022-08-14T07:07:37.256Z,21.81
2022-08-14T07:10:16.687Z,22.00
2022-08-14T07:13:01.999Z,22.09
2022-08-14T07:15:33.923Z,22.20
2022-08-14T07:18:09.143Z,22.30
2022-08-14T07:20:38.483Z,22.41
2022-08-14T07:23:19.827Z,22.44
2022-08-14T07:25:51.451Z,22.52
2022-08-14T07:28:23.585Z,22.64
2022-08-14T07:30:52.629Z,22.70
2022-08-14T07:33:24.731Z,22.65
2022-08-14T07:36:01.223Z,22.85
2022-08-14T07:38:37.426Z,23.03
2022-08-14T07:41:14.804Z,23.23
2022-08-14T07:43:56.077Z,23.44
2022-08-14T07:46:29.100Z,23.64
2022-08-14T07:48:59.066Z,23.75
2022-08-14T07:51:34.125Z,23.95
2022-08-14T07:54:04.450Z,24.09
2022-08-14T07:56:47.762Z,24.19
2022-08-14T07:59:18.487Z,24.28
2022-08-14T08:01:51.570Z,24.43
2022-08-14T08:04:26.957Z,24.52
2022-08-14T08:06:56.196Z,24.57
2022-08-14T08:09:29.875Z,24.63
2022-08-14T08:12:04.807Z,24.71
2022-08-14T08:14:56.841Z,24.90
2022-08-14T08:17:34.930Z,25.73
2022-08-14T08:20:11.442Z,26.48
2022-08-14T08:22:48.392Z,27.12
2022-08-14T08:25:20.137Z,27.56
2022-08-14T08:28:08.247Z,27.95
2022-08-14T08:30:45.156Z,28.34
2022-08-14T08:33:19.640Z,28.60
2022-08-14T08:35:50.597Z,28.47
2022-08-14T08:39:17.102Z,28.26
2022-08-14T08:41:11.846Z,28.11
2022-08-14T08:43:46.339Z,28.27
2022-08-14T08:46:21.125Z,28.47
2022-08-14T08:48:54.077Z,28.41
2022-08-14T08:51:25.319Z,28.40
2022-08-14T08:54:01.829Z,27.78
2022-08-14T08:56:42.025Z,27.62
2022-08-14T08:59:27.384Z,27.81
2022-08-14T09:02:01.412Z,27.93
2022-08-14T09:04:37.615Z,28.17
2022-08-14T09:07:14.548Z,27.91
2022-08-14T09:09:54.522Z,27.93
2022-08-14T09:12:31.746Z,28.22
2022-08-14T09:15:02.403Z,28.44
2022-08-14T09:17:30.963Z,28.49
2022-08-14T09:20:02.179Z,28.48
2022-08-14T09:22:33.347Z,28.55
2022-08-14T09:25:07.663Z,28.57
2022-08-14T09:27:41.052Z,28.75
2022-08-14T09:30:30.973Z,28.78
2022-08-14T09:33:22.937Z,28.75
2022-08-14T09:36:18.466Z,28.86
2022-08-14T09:38:53.918Z,28.90
2022-08-14T09:42:17.599Z,28.82
2022-08-14T09:44:45.831Z,28.81
2022-08-14T09:47:15.495Z,28.96
2022-08-14T09:49:53.123Z,28.95
2022-08-14T09:52:33.883Z,28.90
2022-08-14T09:55:05.046Z,28.67
2022-08-14T09:57:35.589Z,28.43
2022-08-14T10:00:28.622Z,28.27
2022-08-14T10:03:05.162Z,28.64
2022-08-14T10:05:37.885Z,28.77
2022-08-14T10:08:20.570Z,28.65
2022-08-14T10:11:02.455Z,28.82
2022-08-14T10:13:53.003Z,28.61
2022-08-14T10:16:25.617Z,28.43
2022-08-14T10:19:09.371Z,28.47
2022-08-14T10:23:11.782Z,28.60
2022-08-14T10:24:40.283Z,28.54
2022-08-14T10:27:18.582Z,28.45
2022-08-14T10:29:50.358Z,28.44
2022-08-14T10:32:36.146Z,28.63
2022-08-14T10:35:14.923Z,28.94
2022-08-14T10:37:48.762Z,29.05
2022-08-14T10:40:38.064Z,28.73
2022-08-14T10:43:23.298Z,28.69
2022-08-14T10:46:04.040Z,28.51
2022-08-14T10:49:04.285Z,28.15
2022-08-14T10:51:39.674Z,28.33
2022-08-14T10:54:35.182Z,28.20
2022-08-14T10:57:12.428Z,27.99
2022-08-14T10:59:46.538Z,28.24
2022-08-14T11:02:22.273Z,28.16
2022-08-14T11:05:09.396Z,28.32
2022-08-14T11:07:41.419Z,28.38
2022-08-14T11:10:14.069Z,28.41
2022-08-14T11:12:48.184Z,28.36
2022-08-14T11:15:19.233Z,28.31
2022-08-14T11:17:48.875Z,28.03
2022-08-14T11:20:20.955Z,28.17
2022-08-14T11:22:57.828Z,28.35
2022-08-14T11:25:36.775Z,28.45
2022-08-14T11:28:14.821Z,28.42
2022-08-14T11:30:54.129Z,28.44
2022-08-14T11:33:24.772Z,28.41
2022-08-14T11:35:59.574Z,28.23
2022-08-14T11:38:29.357Z,28.19
2022-08-14T11:40:58.870Z,28.07
2022-08-14T11:43:29.558Z,28.00
2022-08-14T11:46:03.774Z,27.97
2022-08-14T11:49:02.854Z,27.97
2022-08-14T11:51:30.674Z,27.83
2022-08-14T11:54:04.132Z,27.74
2022-08-14T11:56:37.418Z,27.54
2022-08-14T11:59:10.297Z,27.70
2022-08-14T12:01:41.181Z,27.65
2022-08-14T12:04:31.749Z,27.65
2022-08-14T12:07:03.789Z,27.67
2022-08-14T12:09:36.897Z,27.65
2022-08-14T12:12:35.088Z,27.69
2022-08-14T12:15:06.857Z,27.79
2022-08-14T12:17:50.431Z,27.71
2022-08-14T12:20:29.930Z,27.57
2022-08-14T12:23:05.199Z,27.62
2022-08-14T12:25:34.926Z,27.70
2022-08-14T12:28:08.640Z,27.78
2022-08-14T12:30:39.654Z,27.65
2022-08-14T12:33:26.946Z,27.46
2022-08-14T12:36:00.679Z,27.46
2022-08-14T12:38:37.016Z,27.43
2022-08-14T12:41:11.905Z,27.40
2022-08-14T12:43:51.870Z,27.42
2022-08-14T12:46:28.765Z,27.47
2022-08-14T12:48:59.006Z,27.35
2022-08-14T12:51:28.825Z,27.44
2022-08-14T12:54:28.526Z,27.48
2022-08-14T12:57:07.058Z,27.61
2022-08-14T12:59:42.711Z,27.72
2022-08-14T13:02:25.385Z,27.71
2022-08-14T13:04:56.854Z,27.88
2022-08-14T13:07:32.861Z,28.05
2022-08-14T13:10:12.813Z,27.94
2022-08-14T13:15:45.517Z,27.92
2022-08-14T13:18:16.903Z,28.04
2022-08-14T13:20:51.491Z,28.14
2022-08-14T13:23:36.203Z,28.18
2022-08-14T13:26:08.400Z,28.29
2022-08-14T13:29:02.142Z,28.23
2022-08-14T13:31:34.254Z,28.13
2022-08-14T13:34:04.463Z,28.21
2022-08-14T13:36:51.755Z,28.27
2022-08-14T13:39:23.635Z,28.40
2022-08-14T13:41:55.771Z,28.27
2022-08-14T13:44:28.824Z,28.35
2022-08-14T13:46:58.454Z,28.49
2022-08-14T13:49:29.040Z,28.68
2022-08-14T13:52:02.570Z,28.58
2022-08-14T13:54:35.888Z,28.68
2022-08-14T13:57:10.116Z,28.83
2022-08-14T13:59:44.495Z,28.72
2022-08-14T14:02:12.980Z,28.65
2022-08-14T14:05:04.524Z,28.75
2022-08-14T14:07:39.284Z,28.66
2022-08-14T14:10:11.982Z,28.82
2022-08-14T14:12:44.659Z,28.81
2022-08-14T14:15:33.805Z,28.79
2022-08-14T14:18:15.215Z,28.82
2022-08-14T14:20:58.982Z,28.75
2022-08-14T14:23:28.122Z,28.86
2022-08-14T14:25:58.709Z,28.90
2022-08-14T14:28:32.808Z,28.95
2022-08-14T14:31:06.714Z,28.99
2022-08-14T14:33:52.204Z,29.11
2022-08-14T14:36:28.028Z,29.06
2022-08-14T14:38:57.699Z,29.11
2022-08-14T14:41:37.767Z,29.12
2022-08-14T14:44:13.506Z,29.02
2022-08-14T14:46:43.928Z,29.11
2022-08-14T14:49:15.033Z,29.23
2022-08-14T14:51:46.841Z,28.97
2022-08-14T14:54:31.786Z,28.92
2022-08-14T14:57:09.039Z,29.01
2022-08-14T14:59:39.211Z,29.07
2022-08-14T15:02:09.490Z,29.09
2022-08-14T15:04:43.404Z,29.10
2022-08-14T15:07:12.624Z,29.08
2022-08-14T15:09:41.519Z,29.16
2022-08-14T15:12:28.052Z,29.05
2022-08-14T15:15:08.599Z,29.13
2022-08-14T15:17:41.217Z,28.97
2022-08-14T15:20:16.906Z,29.00
2022-08-14T15:22:51.050Z,28.98
2022-08-14T15:25:20.188Z,29.02
2022-08-14T15:27:54.531Z,28.96
2022-08-14T15:30:32.167Z,28.91
2022-08-14T15:33:01.315Z,28.99
2022-08-14T15:35:34.011Z,28.83
2022-08-14T15:38:08.016Z,28.72
2022-08-14T15:40:41.118Z,28.52
2022-08-14T15:43:13.033Z,28.27
2022-08-14T15:45:43.407Z,28.24
2022-08-14T15:48:22.349Z,28.34
2022-08-14T15:50:51.976Z,28.29
2022-08-14T15:53:22.495Z,28.29
2022-08-14T15:55:52.859Z,28.24
2022-08-14T15:58:21.936Z,28.14
2022-08-14T16:01:09.740Z,28.08
2022-08-14T16:03:42.295Z,28.09
2022-08-14T16:06:17.703Z,28.15
2022-08-14T16:08:50.481Z,28.19
2022-08-14T16:11:28.806Z,28.14
2022-08-14T16:14:01.893Z,28.10
2022-08-14T16:16:50.984Z,27.90
2022-08-14T16:19:27.921Z,27.81
2022-08-14T16:22:56.676Z,27.86
2022-08-14T16:24:59.876Z,27.68
2022-08-14T16:27:37.293Z,27.50
2022-08-14T16:30:20.620Z,27.52
2022-08-14T16:35:55.815Z,27.43
2022-08-14T16:38:45.985Z,27.39
2022-08-14T16:41:26.595Z,27.45
2022-08-14T16:43:59.305Z,27.52
2022-08-14T16:46:31.502Z,27.53
2022-08-14T16:49:02.585Z,27.61
2022-08-14T16:51:34.983Z,27.57
2022-08-14T16:54:33.688Z,27.48
2022-08-14T16:57:16.192Z,27.40
2022-08-14T16:59:52.678Z,27.44
2022-08-14T17:02:39.001Z,27.43
2022-08-14T17:05:22.513Z,27.24
2022-08-14T17:08:32.079Z,27.06
2022-08-14T17:11:09.720Z,26.97
2022-08-14T17:13:58.267Z,27.13
2022-08-14T17:16:35.496Z,27.11
2022-08-14T17:19:05.701Z,27.12
2022-08-14T17:21:47.787Z,27.16
2022-08-14T17:24:57.174Z,27.09
2022-08-14T17:27:08.614Z,27.15
2022-08-14T17:29:54.173Z,27.16
2022-08-14T17:32:29.464Z,27.23
2022-08-14T17:35:16.365Z,27.15
2022-08-14T17:37:55.445Z,27.18
2022-08-14T17:40:25.914Z,27.02
2022-08-14T17:43:02.375Z,26.94
2022-08-14T17:45:46.915Z,26.72
2022-08-14T17:49:15.913Z,26.75
2022-08-14T17:51:23.428Z,26.85
2022-08-14T17:54:02.704Z,26.82
2022-08-14T17:56:33.765Z,26.76
2022-08-14T17:59:04.190Z,26.74
2022-08-14T18:01:45.936Z,26.67
2022-08-14T18:04:28.218Z,26.76
2022-08-14T18:07:09.008Z,26.69
2022-08-14T18:09:57.234Z,26.70
2022-08-14T18:12:37.194Z,26.66
2022-08-14T18:15:16.113Z,26.59
2022-08-14T18:17:46.768Z,26.59
2022-08-14T18:21:42.320Z,26.56
2022-08-14T18:23:12.794Z,26.56
2022-08-14T18:25:49.663Z,26.45
2022-08-14T18:28:51.176Z,26.47
2022-08-14T18:31:42.238Z,26.34
2022-08-14T18:34:31.529Z,26.37
2022-08-14T18:37:17.236Z,26.28
2022-08-14T18:40:02.102Z,26.30
2022-08-14T18:42:46.575Z,26.23
2022-08-14T18:45:19.088Z,26.23
2022-08-14T18:48:15.830Z,26.01
2022-08-14T18:50:52.273Z,26.17
2022-08-14T18:53:25.032Z,26.17
2022-08-14T18:55:59.992Z,26.13
2022-08-14T18:58:48.150Z,26.12
2022-08-14T19:01:24.452Z,26.15
2022-08-14T19:03:54.680Z,26.18
2022-08-14T19:06:40.563Z,26.04
2022-08-14T19:09:09.365Z,26.06
2022-08-14T19:11:55.525Z,25.97
2022-08-14T19:14:48.481Z,25.97
2022-08-14T19:17:43.488Z,25.94
2022-08-14T19:20:47.885Z,25.88
2022-08-14T19:23:19.404Z,25.86
2022-08-14T19:25:54.407Z,25.90
2022-08-14T19:28:31.593Z,25.84
2022-08-14T19:31:34.186Z,25.70
2022-08-14T19:34:29.755Z,25.63
2022-08-14T19:37:10.069Z,25.67
2022-08-14T19:39:53.475Z,25.60
2022-08-14T19:42:28.174Z,25.58
2022-08-14T19:44:59.515Z,25.59
2022-08-14T19:47:41.515Z,25.48
2022-08-14T19:50:37.668Z,25.57
2022-08-14T19:53:11.626Z,25.55
2022-08-14T19:55:47.451Z,25.47
2022-08-14T19:58:17.152Z,25.41
2022-08-14T20:00:59.323Z,25.34
2022-08-14T20:03:59.993Z,25.34
2022-08-14T20:06:19.542Z,25.26
2022-08-14T20:10:59.135Z,25.12
2022-08-14T20:12:02.534Z,25.21
2022-08-14T20:14:37.470Z,25.12
2022-08-14T20:17:08.308Z,25.16
2022-08-14T20:19:37.878Z,25.09
2022-08-14T20:22:35.431Z,25.04
2022-08-14T20:25:14.055Z,24.88
2022-08-14T20:27:44.564Z,24.94
2022-08-14T20:30:37.613Z,24.83
2022-08-14T20:33:11.492Z,24.70
2022-08-14T20:35:43.640Z,24.72
2022-08-14T20:38:29.477Z,24.64
2022-08-14T20:41:06.600Z,24.61
2022-08-14T20:44:00.702Z,24.53
2022-08-14T20:46:38.973Z,24.50
2022-08-14T20:49:09.943Z,24.42
2022-08-14T20:51:47.305Z,24.36
2022-08-14T20:54:34.757Z,24.34
2022-08-14T20:57:14.756Z,24.32
2022-08-14T20:59:44.902Z,24.40
2022-08-14T21:02:34.749Z,24.31
2022-08-14T21:05:16.702Z,24.41
2022-08-14T21:07:50.489Z,24.36
2022-08-14T21:10:35.891Z,24.34
2022-08-14T21:13:26.101Z,24.36
2022-08-14T21:15:57.234Z,24.35
2022-08-14T21:18:29.772Z,24.29
2022-08-14T21:21:00.052Z,24.19
2022-08-14T21:23:32.429Z,24.21
2022-08-14T21:26:05.441Z,24.07
2022-08-14T21:28:34.982Z,24.18
2022-08-14T21:31:04.586Z,24.19
2022-08-14T21:33:37.008Z,24.14
2022-08-14T21:36:09.899Z,24.21
2022-08-14T21:38:42.369Z,24.21
2022-08-14T21:41:42.254Z,24.14
2022-08-14T21:44:17.569Z,24.00
2022-08-14T21:46:50.278Z,24.14
2022-08-14T21:49:23.486Z,24.12
2022-08-14T21:51:59.991Z,24.08
2022-08-14T21:54:49.901Z,24.03
2022-08-14T21:57:56.044Z,23.80
2022-08-14T22:00:35.217Z,23.92
2022-08-14T22:03:02.345Z,23.95
2022-08-14T22:05:32.322Z,23.88
2022-08-14T22:08:07.562Z,23.83
2022-08-14T22:10:42.054Z,23.77
2022-08-14T22:13:11.343Z,23.76
2022-08-14T22:15:43.892Z,23.73
2022-08-14T22:18:19.931Z,23.70
2022-08-14T22:20:53.957Z,23.51
2022-08-14T22:23:26.511Z,23.54
2022-08-14T22:25:56.316Z,23.56
2022-08-14T22:28:32.692Z,23.59
2022-08-14T22:31:02.754Z,23.64
2022-08-14T22:33:32.553Z,23.49
2022-08-14T22:36:25.955Z,23.42
2022-08-14T22:38:55.170Z,23.45
2022-08-14T22:41:29.254Z,23.48
2022-08-14T22:44:06.565Z,23.48
2022-08-14T22:46:35.023Z,23.50
2022-08-14T22:49:15.675Z,23.51
2022-08-14T22:51:54.655Z,23.30
2022-08-14T22:54:52.520Z,23.25
2022-08-14T22:57:14.428Z,23.23
2022-08-14T22:59:43.110Z,23.19
2022-08-14T23:02:16.286Z,23.20
2022-08-14T23:04:53.890Z,23.28
2022-08-14T23:07:24.859Z,23.28
2022-08-14T23:09:56.930Z,23.22
2022-08-14T23:12:29.628Z,23.20
2022-08-14T23:15:00.015Z,23.10
2022-08-14T23:17:39.092Z,23.19
2022-08-14T23:20:18.825Z,23.12
2022-08-14T23:22:52.357Z,22.98
2022-08-14T23:25:56.922Z,23.01
2022-08-14T23:28:34.191Z,22.94
2022-08-14T23:31:05.557Z,22.86
2022-08-14T23:33:35.495Z,22.82
2022-08-14T23:36:32.290Z,22.74
2022-08-14T23:38:55.858Z,22.78
2022-08-14T23:41:24.887Z,22.75
2022-08-14T23:43:55.294Z,22.77
2022-08-14T23:46:34.813Z,22.75
2022-08-14T23:49:04.203Z,22.79
2022-08-14T23:51:38.452Z,22.77
2022-08-14T23:54:49.021Z,22.79
2022-08-14T23:57:02.418Z,22.90
2022-08-14T23:59:31.619Z,22.84
